sensor_id;sensor_type;location;lat;lon;timestamp;P1;durP1;ratioP1;P2;durP2;ratioP2
50301;SDS011;36550;50.472;19.744;2022-08-01T00:01:36;10.85;;;9.70;;
50301;SDS011;36550;50.472;19.744;2022-08-01T00:04:20;11.30;;;9.05;;
50301;SDS011;36550;50.472;19.744;2022-08-01T00:07:05;9.25;;;8.30;;
50301;SDS011;36550;50.472;19.744;2022-08-01T00:09:49;13.10;;;7.72;;
50301;SDS011;36550;50.472;19.744;2022-08-01T00:12:33;9.98;;;7.60;;
50301;SDS011;36550;50.472;19.744;2022-08-01T00:15:17;12.00;;;8.30;;
50301;SDS011;36550;50.472;19.744;2022-08-01T00:18:01;10.23;;;7.90;;
50301;SDS011;36550;50.472;19.744;2022-08-01T00:20:46;10.78;;;7.62;;
50301;SDS011;36550;50.472;19.744;2022-08-01T00:23:30;10.55;;;7.55;;
50301;SDS011;36550;50.472;19.744;2022-08-01T00:26:14;13.65;;;8.03;;
50301;SDS011;36550;50.472;19.744;2022-08-01T00:28:58;14.20;;;9.68;;
50301;SDS011;36550;50.472;19.744;2022-08-01T00:31:43;10.98;;;9.80;;
50301;SDS011;36550;50.472;19.744;2022-08-01T00:34:27;13.72;;;9.53;;
50301;SDS011;36550;50.472;19.744;2022-08-01T00:37:11;9.73;;;8.75;;
50301;SDS011;36550;50.472;19.744;2022-08-01T00:39:55;13.55;;;9.03;;
50301;SDS011;36550;50.472;19.744;2022-08-01T00:42:39;11.18;;;8.25;;
50301;SDS011;36550;50.472;19.744;2022-08-01T00:45:25;10.72;;;7.97;;
50301;SDS011;36550;50.472;19.744;2022-08-01T00:48:09;14.43;;;8.60;;
50301;SDS011;36550;50.472;19.744;2022-08-01T00:50:55;12.37;;;8.20;;
50301;SDS011;36550;50.472;19.744;2022-08-01T00:53:39;11.75;;;7.85;;
50301;SDS011;36550;50.472;19.744;2022-08-01T00:56:24;13.17;;;9.40;;
50301;SDS011;36550;50.472;19.744;2022-08-01T00:59:11;10.90;;;9.80;;
50301;SDS011;36550;50.472;19.744;2022-08-01T01:01:56;11.08;;;9.00;;
50301;SDS011;36550;50.472;19.744;2022-08-01T01:04:40;12.20;;;8.63;;
50301;SDS011;36550;50.472;19.744;2022-08-01T01:07:40;10.08;;;8.65;;
50301;SDS011;36550;50.472;19.744;2022-08-01T01:11:04;8.15;;;6.87;;
50301;SDS011;36550;50.472;19.744;2022-08-01T01:13:43;9.48;;;7.83;;
50301;SDS011;36550;50.472;19.744;2022-08-01T01:16:32;8.65;;;7.75;;
50301;SDS011;36550;50.472;19.744;2022-08-01T01:19:21;8.93;;;7.60;;
50301;SDS011;36550;50.472;19.744;2022-08-01T01:22:15;10.03;;;8.78;;
50301;SDS011;36550;50.472;19.744;2022-08-01T01:28:50;10.45;;;9.15;;
50301;SDS011;36550;50.472;19.744;2022-08-01T01:31:49;10.58;;;8.98;;
50301;SDS011;36550;50.472;19.744;2022-08-01T01:34:38;10.43;;;8.13;;
50301;SDS011;36550;50.472;19.744;2022-08-01T01:37:26;11.03;;;8.10;;
50301;SDS011;36550;50.472;19.744;2022-08-01T01:40:13;8.93;;;7.95;;
50301;SDS011;36550;50.472;19.744;2022-08-01T01:45:44;13.28;;;8.35;;
50301;SDS011;36550;50.472;19.744;2022-08-01T01:48:29;10.30;;;7.85;;
50301;SDS011;36550;50.472;19.744;2022-08-01T01:51:16;10.13;;;8.48;;
50301;SDS011;36550;50.472;19.744;2022-08-01T01:54:02;13.85;;;11.70;;
50301;SDS011;36550;50.472;19.744;2022-08-01T01:56:48;12.18;;;10.32;;
50301;SDS011;36550;50.472;19.744;2022-08-01T01:59:35;14.23;;;10.18;;
50301;SDS011;36550;50.472;19.744;2022-08-01T02:02:22;10.03;;;8.93;;
50301;SDS011;36550;50.472;19.744;2022-08-01T02:05:09;12.60;;;9.40;;
50301;SDS011;36550;50.472;19.744;2022-08-01T02:07:55;10.68;;;8.38;;
50301;SDS011;36550;50.472;19.744;2022-08-01T02:10:40;9.90;;;8.70;;
50301;SDS011;36550;50.472;19.744;2022-08-01T02:13:28;10.98;;;9.08;;
50301;SDS011;36550;50.472;19.744;2022-08-01T02:16:18;10.58;;;8.65;;
50301;SDS011;36550;50.472;19.744;2022-08-01T02:19:05;9.50;;;7.95;;
50301;SDS011;36550;50.472;19.744;2022-08-01T02:21:57;13.15;;;9.78;;
50301;SDS011;36550;50.472;19.744;2022-08-01T02:25:05;12.95;;;10.23;;
50301;SDS011;36550;50.472;19.744;2022-08-01T02:30:50;12.75;;;9.13;;
50301;SDS011;36550;50.472;19.744;2022-08-01T02:33:38;11.75;;;8.93;;
50301;SDS011;36550;50.472;19.744;2022-08-01T02:36:26;11.38;;;8.70;;
50301;SDS011;36550;50.472;19.744;2022-08-01T02:39:13;10.78;;;8.18;;
50301;SDS011;36550;50.472;19.744;2022-08-01T02:42:03;9.28;;;8.15;;
50301;SDS011;36550;50.472;19.744;2022-08-01T02:44:50;12.47;;;8.80;;
50301;SDS011;36550;50.472;19.744;2022-08-01T02:47:37;9.90;;;6.95;;
50301;SDS011;36550;50.472;19.744;2022-08-01T02:50:23;11.90;;;8.65;;
50301;SDS011;36550;50.472;19.744;2022-08-01T02:53:10;12.18;;;9.28;;
50301;SDS011;36550;50.472;19.744;2022-08-01T02:55:56;14.10;;;10.10;;
50301;SDS011;36550;50.472;19.744;2022-08-01T02:58:42;12.63;;;9.40;;
50301;SDS011;36550;50.472;19.744;2022-08-01T03:01:30;9.78;;;8.78;;
50301;SDS011;36550;50.472;19.744;2022-08-01T03:04:20;13.08;;;9.53;;
50301;SDS011;36550;50.472;19.744;2022-08-01T03:07:07;14.45;;;9.48;;
50301;SDS011;36550;50.472;19.744;2022-08-01T03:09:54;11.85;;;8.40;;
50301;SDS011;36550;50.472;19.744;2022-08-01T03:12:38;15.75;;;8.80;;
50301;SDS011;36550;50.472;19.744;2022-08-01T03:15:24;16.12;;;9.60;;
50301;SDS011;36550;50.472;19.744;2022-08-01T03:18:10;13.25;;;10.03;;
50301;SDS011;36550;50.472;19.744;2022-08-01T03:20:56;11.68;;;9.35;;
50301;SDS011;36550;50.472;19.744;2022-08-01T03:23:43;13.35;;;9.28;;
50301;SDS011;36550;50.472;19.744;2022-08-01T03:29:16;14.00;;;8.85;;
50301;SDS011;36550;50.472;19.744;2022-08-01T03:32:04;16.23;;;11.60;;
50301;SDS011;36550;50.472;19.744;2022-08-01T03:34:49;11.48;;;9.85;;
50301;SDS011;36550;50.472;19.744;2022-08-01T03:37:35;13.68;;;9.40;;
50301;SDS011;36550;50.472;19.744;2022-08-01T03:40:25;14.53;;;9.08;;
50301;SDS011;36550;50.472;19.744;2022-08-01T03:43:41;14.40;;;10.30;;
50301;SDS011;36550;50.472;19.744;2022-08-01T03:46:46;15.88;;;12.00;;
50301;SDS011;36550;50.472;19.744;2022-08-01T03:49:32;13.35;;;11.48;;
50301;SDS011;36550;50.472;19.744;2022-08-01T03:52:18;9.80;;;8.63;;
50301;SDS011;36550;50.472;19.744;2022-08-01T03:55:05;11.40;;;9.40;;
50301;SDS011;36550;50.472;19.744;2022-08-01T03:57:51;11.05;;;8.38;;
50301;SDS011;36550;50.472;19.744;2022-08-01T04:00:38;9.70;;;8.05;;
50301;SDS011;36550;50.472;19.744;2022-08-01T04:03:24;12.53;;;8.83;;
50301;SDS011;36550;50.472;19.744;2022-08-01T04:06:08;11.70;;;9.00;;
50301;SDS011;36550;50.472;19.744;2022-08-01T04:08:53;10.65;;;8.50;;
50301;SDS011;36550;50.472;19.744;2022-08-01T04:11:41;18.10;;;10.43;;
50301;SDS011;36550;50.472;19.744;2022-08-01T04:14:28;12.87;;;10.90;;
50301;SDS011;36550;50.472;19.744;2022-08-01T04:17:13;14.98;;;11.28;;
50301;SDS011;36550;50.472;19.744;2022-08-01T04:19:58;10.72;;;8.63;;
50301;SDS011;36550;50.472;19.744;2022-08-01T04:22:43;12.10;;;8.05;;
50301;SDS011;36550;50.472;19.744;2022-08-01T04:25:33;13.50;;;7.67;;
50301;SDS011;36550;50.472;19.744;2022-08-01T04:28:20;10.20;;;7.92;;
50301;SDS011;36550;50.472;19.744;2022-08-01T04:31:06;11.97;;;8.73;;
50301;SDS011;36550;50.472;19.744;2022-08-01T04:33:53;14.07;;;9.85;;
50301;SDS011;36550;50.472;19.744;2022-08-01T04:36:39;16.90;;;10.05;;
50301;SDS011;36550;50.472;19.744;2022-08-01T04:39:28;15.00;;;11.00;;
50301;SDS011;36550;50.472;19.744;2022-08-01T04:42:16;15.05;;;10.23;;
50301;SDS011;36550;50.472;19.744;2022-08-01T04:45:00;9.25;;;7.70;;
50301;SDS011;36550;50.472;19.744;2022-08-01T04:47:45;10.75;;;8.53;;
50301;SDS011;36550;50.472;19.744;2022-08-01T04:50:31;11.38;;;8.65;;
50301;SDS011;36550;50.472;19.744;2022-08-01T04:53:16;13.47;;;9.60;;
50301;SDS011;36550;50.472;19.744;2022-08-01T04:56:04;14.53;;;9.00;;
50301;SDS011;36550;50.472;19.744;2022-08-01T04:58:49;10.23;;;8.63;;
50301;SDS011;36550;50.472;19.744;2022-08-01T05:01:36;8.58;;;7.03;;
50301;SDS011;36550;50.472;19.744;2022-08-01T05:04:20;10.43;;;6.72;;
50301;SDS011;36550;50.472;19.744;2022-08-01T05:07:04;9.83;;;7.37;;
50301;SDS011;36550;50.472;19.744;2022-08-01T05:09:49;10.03;;;8.13;;
50301;SDS011;36550;50.472;19.744;2022-08-01T05:12:34;10.65;;;8.15;;
50301;SDS011;36550;50.472;19.744;2022-08-01T05:15:19;11.75;;;9.08;;
50301;SDS011;36550;50.472;19.744;2022-08-01T05:18:05;19.40;;;8.13;;
50301;SDS011;36550;50.472;19.744;2022-08-01T05:20:49;9.90;;;7.33;;
50301;SDS011;36550;50.472;19.744;2022-08-01T05:23:34;10.05;;;7.25;;
50301;SDS011;36550;50.472;19.744;2022-08-01T05:26:18;13.50;;;8.35;;
50301;SDS011;36550;50.472;19.744;2022-08-01T05:29:02;14.38;;;9.83;;
50301;SDS011;36550;50.472;19.744;2022-08-01T05:31:46;15.18;;;10.63;;
50301;SDS011;36550;50.472;19.744;2022-08-01T05:34:31;16.25;;;11.28;;
50301;SDS011;36550;50.472;19.744;2022-08-01T05:37:15;13.80;;;10.80;;
50301;SDS011;36550;50.472;19.744;2022-08-01T05:39:59;13.13;;;9.15;;
50301;SDS011;36550;50.472;19.744;2022-08-01T05:42:43;10.63;;;8.15;;
50301;SDS011;36550;50.472;19.744;2022-08-01T05:45:27;11.35;;;9.13;;
50301;SDS011;36550;50.472;19.744;2022-08-01T05:48:11;13.03;;;10.18;;
50301;SDS011;36550;50.472;19.744;2022-08-01T05:50:55;11.18;;;9.35;;
50301;SDS011;36550;50.472;19.744;2022-08-01T05:53:40;10.65;;;7.85;;
50301;SDS011;36550;50.472;19.744;2022-08-01T05:56:24;8.48;;;7.10;;
50301;SDS011;36550;50.472;19.744;2022-08-01T05:59:09;9.40;;;7.87;;
50301;SDS011;36550;50.472;19.744;2022-08-01T06:01:53;10.50;;;7.72;;
50301;SDS011;36550;50.472;19.744;2022-08-01T06:04:37;9.08;;;7.67;;
50301;SDS011;36550;50.472;19.744;2022-08-01T06:07:21;12.28;;;8.65;;
50301;SDS011;36550;50.472;19.744;2022-08-01T06:10:06;8.73;;;7.83;;
50301;SDS011;36550;50.472;19.744;2022-08-01T06:12:53;9.43;;;8.15;;
50301;SDS011;36550;50.472;19.744;2022-08-01T06:15:37;10.05;;;7.92;;
50301;SDS011;36550;50.472;19.744;2022-08-01T06:18:21;9.87;;;7.37;;
50301;SDS011;36550;50.472;19.744;2022-08-01T06:21:05;9.40;;;8.03;;
50301;SDS011;36550;50.472;19.744;2022-08-01T06:23:49;10.72;;;7.45;;
50301;SDS011;36550;50.472;19.744;2022-08-01T06:26:34;11.53;;;7.97;;
50301;SDS011;36550;50.472;19.744;2022-08-01T06:29:19;9.20;;;7.08;;
50301;SDS011;36550;50.472;19.744;2022-08-01T06:32:04;8.48;;;7.28;;
50301;SDS011;36550;50.472;19.744;2022-08-01T06:34:49;8.75;;;6.67;;
50301;SDS011;36550;50.472;19.744;2022-08-01T06:37:33;7.17;;;6.40;;
50301;SDS011;36550;50.472;19.744;2022-08-01T06:40:18;7.92;;;7.00;;
50301;SDS011;36550;50.472;19.744;2022-08-01T06:43:02;6.95;;;6.25;;
50301;SDS011;36550;50.472;19.744;2022-08-01T06:45:46;7.83;;;6.35;;
50301;SDS011;36550;50.472;19.744;2022-08-01T06:48:31;6.72;;;5.90;;
50301;SDS011;36550;50.472;19.744;2022-08-01T06:51:15;6.77;;;5.77;;
50301;SDS011;36550;50.472;19.744;2022-08-01T06:54:02;6.50;;;5.37;;
50301;SDS011;36550;50.472;19.744;2022-08-01T06:56:47;5.07;;;4.37;;
50301;SDS011;36550;50.472;19.744;2022-08-01T06:59:31;5.15;;;4.03;;
50301;SDS011;36550;50.472;19.744;2022-08-01T07:02:15;7.97;;;4.67;;
50301;SDS011;36550;50.472;19.744;2022-08-01T07:04:59;5.65;;;4.55;;
50301;SDS011;36550;50.472;19.744;2022-08-01T07:07:44;6.00;;;4.97;;
50301;SDS011;36550;50.472;19.744;2022-08-01T07:10:28;5.10;;;3.58;;
50301;SDS011;36550;50.472;19.744;2022-08-01T07:13:13;6.60;;;5.12;;
50301;SDS011;36550;50.472;19.744;2022-08-01T07:15:58;8.63;;;6.72;;
50301;SDS011;36550;50.472;19.744;2022-08-01T07:18:42;6.62;;;3.33;;
50301;SDS011;36550;50.472;19.744;2022-08-01T07:21:27;5.45;;;3.33;;
50301;SDS011;36550;50.472;19.744;2022-08-01T07:24:12;4.10;;;3.15;;
50301;SDS011;36550;50.472;19.744;2022-08-01T07:26:57;5.33;;;2.95;;
50301;SDS011;36550;50.472;19.744;2022-08-01T07:29:42;6.30;;;2.77;;
50301;SDS011;36550;50.472;19.744;2022-08-01T07:32:26;3.17;;;2.50;;
50301;SDS011;36550;50.472;19.744;2022-08-01T07:35:10;4.17;;;2.67;;
50301;SDS011;36550;50.472;19.744;2022-08-01T07:37:54;6.17;;;2.65;;
50301;SDS011;36550;50.472;19.744;2022-08-01T07:40:39;4.97;;;2.53;;
50301;SDS011;36550;50.472;19.744;2022-08-01T07:43:23;4.35;;;2.40;;
50301;SDS011;36550;50.472;19.744;2022-08-01T07:46:07;3.15;;;2.12;;
50301;SDS011;36550;50.472;19.744;2022-08-01T07:48:51;4.80;;;2.55;;
50301;SDS011;36550;50.472;19.744;2022-08-01T07:51:35;6.20;;;2.40;;
50301;SDS011;36550;50.472;19.744;2022-08-01T07:54:19;3.45;;;2.05;;
50301;SDS011;36550;50.472;19.744;2022-08-01T07:57:03;3.47;;;2.20;;
50301;SDS011;36550;50.472;19.744;2022-08-01T07:59:48;4.10;;;2.65;;
50301;SDS011;36550;50.472;19.744;2022-08-01T08:02:33;4.20;;;2.30;;
50301;SDS011;36550;50.472;19.744;2022-08-01T08:05:17;4.70;;;2.47;;
50301;SDS011;36550;50.472;19.744;2022-08-01T08:08:05;5.85;;;3.00;;
50301;SDS011;36550;50.472;19.744;2022-08-01T08:10:51;3.62;;;2.22;;
50301;SDS011;36550;50.472;19.744;2022-08-01T08:13:35;2.90;;;1.98;;
50301;SDS011;36550;50.472;19.744;2022-08-01T08:16:20;2.80;;;1.98;;
50301;SDS011;36550;50.472;19.744;2022-08-01T08:19:04;3.37;;;2.13;;
50301;SDS011;36550;50.472;19.744;2022-08-01T08:21:48;5.42;;;2.65;;
50301;SDS011;36550;50.472;19.744;2022-08-01T08:24:32;6.17;;;2.98;;
50301;SDS011;36550;50.472;19.744;2022-08-01T08:27:17;3.77;;;2.72;;
50301;SDS011;36550;50.472;19.744;2022-08-01T08:30:03;6.33;;;2.40;;
50301;SDS011;36550;50.472;19.744;2022-08-01T08:32:50;6.97;;;2.92;;
50301;SDS011;36550;50.472;19.744;2022-08-01T08:35:35;6.13;;;3.30;;
50301;SDS011;36550;50.472;19.744;2022-08-01T08:38:19;7.30;;;4.78;;
50301;SDS011;36550;50.472;19.744;2022-08-01T08:41:04;6.92;;;3.65;;
50301;SDS011;36550;50.472;19.744;2022-08-01T08:43:48;5.35;;;3.58;;
50301;SDS011;36550;50.472;19.744;2022-08-01T08:46:33;7.07;;;4.13;;
50301;SDS011;36550;50.472;19.744;2022-08-01T08:49:27;8.98;;;3.67;;
50301;SDS011;36550;50.472;19.744;2022-08-01T08:52:13;5.95;;;3.00;;
50301;SDS011;36550;50.472;19.744;2022-08-01T08:54:58;8.48;;;4.10;;
50301;SDS011;36550;50.472;19.744;2022-08-01T08:57:43;10.08;;;5.20;;
50301;SDS011;36550;50.472;19.744;2022-08-01T09:00:28;9.48;;;5.50;;
50301;SDS011;36550;50.472;19.744;2022-08-01T09:03:12;9.88;;;5.33;;
50301;SDS011;36550;50.472;19.744;2022-08-01T09:05:57;10.30;;;5.85;;
50301;SDS011;36550;50.472;19.744;2022-08-01T09:08:42;11.10;;;6.25;;
50301;SDS011;36550;50.472;19.744;2022-08-01T09:11:26;8.95;;;5.85;;
50301;SDS011;36550;50.472;19.744;2022-08-01T09:14:14;8.67;;;5.83;;
50301;SDS011;36550;50.472;19.744;2022-08-01T09:17:08;11.75;;;6.30;;
50301;SDS011;36550;50.472;19.744;2022-08-01T09:19:55;10.30;;;5.67;;
50301;SDS011;36550;50.472;19.744;2022-08-01T09:22:41;11.30;;;6.05;;
50301;SDS011;36550;50.472;19.744;2022-08-01T09:25:25;12.10;;;5.77;;
50301;SDS011;36550;50.472;19.744;2022-08-01T09:28:12;12.07;;;6.08;;
50301;SDS011;36550;50.472;19.744;2022-08-01T09:30:56;11.65;;;6.92;;
50301;SDS011;36550;50.472;19.744;2022-08-01T09:39:39;11.28;;;4.92;;
50301;SDS011;36550;50.472;19.744;2022-08-01T09:42:25;13.22;;;5.80;;
50301;SDS011;36550;50.472;19.744;2022-08-01T09:45:10;10.38;;;5.33;;
50301;SDS011;36550;50.472;19.744;2022-08-01T09:48:17;8.55;;;4.95;;
50301;SDS011;36550;50.472;19.744;2022-08-01T09:51:03;7.12;;;4.75;;
50301;SDS011;36550;50.472;19.744;2022-08-01T09:53:47;8.45;;;4.47;;
50301;SDS011;36550;50.472;19.744;2022-08-01T09:56:40;10.78;;;4.55;;
50301;SDS011;36550;50.472;19.744;2022-08-01T09:59:34;9.13;;;5.08;;
50301;SDS011;36550;50.472;19.744;2022-08-01T10:02:28;10.08;;;4.53;;
50301;SDS011;36550;50.472;19.744;2022-08-01T10:05:15;8.03;;;4.42;;
50301;SDS011;36550;50.472;19.744;2022-08-01T10:08:00;8.85;;;4.72;;
50301;SDS011;36550;50.472;19.744;2022-08-01T10:13:55;13.83;;;4.47;;
50301;SDS011;36550;50.472;19.744;2022-08-01T10:16:41;9.15;;;3.70;;
50301;SDS011;36550;50.472;19.744;2022-08-01T10:19:27;9.20;;;3.75;;
50301;SDS011;36550;50.472;19.744;2022-08-01T10:22:13;8.98;;;3.92;;
50301;SDS011;36550;50.472;19.744;2022-08-01T10:25:02;5.37;;;2.95;;
50301;SDS011;36550;50.472;19.744;2022-08-01T10:27:48;5.83;;;2.50;;
50301;SDS011;36550;50.472;19.744;2022-08-01T10:30:36;6.40;;;2.65;;
50301;SDS011;36550;50.472;19.744;2022-08-01T10:33:22;5.17;;;2.42;;
50301;SDS011;36550;50.472;19.744;2022-08-01T10:36:06;4.58;;;2.27;;
50301;SDS011;36550;50.472;19.744;2022-08-01T10:38:51;5.85;;;2.10;;
50301;SDS011;36550;50.472;19.744;2022-08-01T10:41:38;6.17;;;2.02;;
50301;SDS011;36550;50.472;19.744;2022-08-01T10:44:23;5.15;;;2.15;;
50301;SDS011;36550;50.472;19.744;2022-08-01T10:47:09;7.47;;;2.05;;
50301;SDS011;36550;50.472;19.744;2022-08-01T10:49:58;4.30;;;2.05;;
50301;SDS011;36550;50.472;19.744;2022-08-01T10:56:10;4.90;;;2.00;;
50301;SDS011;36550;50.472;19.744;2022-08-01T10:59:01;5.25;;;2.52;;
50301;SDS011;36550;50.472;19.744;2022-08-01T11:01:57;6.85;;;2.20;;
50301;SDS011;36550;50.472;19.744;2022-08-01T11:10:39;5.80;;;2.00;;
50301;SDS011;36550;50.472;19.744;2022-08-01T11:16:45;7.83;;;2.27;;
50301;SDS011;36550;50.472;19.744;2022-08-01T11:19:57;5.45;;;1.77;;
50301;SDS011;36550;50.472;19.744;2022-08-01T11:22:24;4.47;;;1.65;;
50301;SDS011;36550;50.472;19.744;2022-08-01T11:25:09;4.30;;;1.80;;
50301;SDS011;36550;50.472;19.744;2022-08-01T11:34:00;3.83;;;1.70;;
50301;SDS011;36550;50.472;19.744;2022-08-01T11:36:44;5.80;;;2.30;;
50301;SDS011;36550;50.472;19.744;2022-08-01T11:39:28;5.47;;;1.85;;
50301;SDS011;36550;50.472;19.744;2022-08-01T11:42:18;3.75;;;1.57;;
50301;SDS011;36550;50.472;19.744;2022-08-01T11:45:04;3.92;;;1.70;;
50301;SDS011;36550;50.472;19.744;2022-08-01T11:47:50;4.70;;;1.75;;
50301;SDS011;36550;50.472;19.744;2022-08-01T11:50:35;3.95;;;1.75;;
50301;SDS011;36550;50.472;19.744;2022-08-01T11:53:20;5.53;;;2.00;;
50301;SDS011;36550;50.472;19.744;2022-08-01T11:56:06;6.55;;;1.90;;
50301;SDS011;36550;50.472;19.744;2022-08-01T11:58:58;3.92;;;1.90;;
50301;SDS011;36550;50.472;19.744;2022-08-01T12:01:44;4.78;;;1.95;;
50301;SDS011;36550;50.472;19.744;2022-08-01T12:04:48;3.77;;;1.95;;
50301;SDS011;36550;50.472;19.744;2022-08-01T12:07:34;3.47;;;1.63;;
50301;SDS011;36550;50.472;19.744;2022-08-01T12:10:20;6.65;;;1.90;;
50301;SDS011;36550;50.472;19.744;2022-08-01T12:13:07;3.60;;;1.90;;
50301;SDS011;36550;50.472;19.744;2022-08-01T12:15:51;4.17;;;1.95;;
50301;SDS011;36550;50.472;19.744;2022-08-01T12:18:40;3.02;;;1.80;;
50301;SDS011;36550;50.472;19.744;2022-08-01T12:21:23;4.65;;;2.00;;
50301;SDS011;36550;50.472;19.744;2022-08-01T12:24:08;7.92;;;2.27;;
50301;SDS011;36550;50.472;19.744;2022-08-01T12:26:52;3.85;;;2.17;;
50301;SDS011;36550;50.472;19.744;2022-08-01T12:32:30;3.58;;;1.60;;
50301;SDS011;36550;50.472;19.744;2022-08-01T12:35:20;2.92;;;1.85;;
50301;SDS011;36550;50.472;19.744;2022-08-01T12:41:10;3.42;;;2.00;;
50301;SDS011;36550;50.472;19.744;2022-08-01T12:43:54;5.47;;;1.90;;
50301;SDS011;36550;50.472;19.744;2022-08-01T12:46:38;5.15;;;1.90;;
50301;SDS011;36550;50.472;19.744;2022-08-01T12:49:23;2.92;;;1.67;;
50301;SDS011;36550;50.472;19.744;2022-08-01T12:52:08;2.00;;;1.70;;
50301;SDS011;36550;50.472;19.744;2022-08-01T12:54:59;7.78;;;1.92;;
50301;SDS011;36550;50.472;19.744;2022-08-01T12:58:05;3.35;;;1.98;;
50301;SDS011;36550;50.472;19.744;2022-08-01T13:01:02;3.27;;;2.00;;
50301;SDS011;36550;50.472;19.744;2022-08-01T13:03:57;2.72;;;2.12;;
50301;SDS011;36550;50.472;19.744;2022-08-01T13:06:43;4.87;;;2.10;;
50301;SDS011;36550;50.472;19.744;2022-08-01T13:09:27;4.08;;;2.20;;
50301;SDS011;36550;50.472;19.744;2022-08-01T13:12:11;4.63;;;2.30;;
50301;SDS011;36550;50.472;19.744;2022-08-01T13:14:56;6.60;;;2.17;;
50301;SDS011;36550;50.472;19.744;2022-08-01T13:17:40;5.12;;;2.40;;
50301;SDS011;36550;50.472;19.744;2022-08-01T13:23:17;8.58;;;2.40;;
50301;SDS011;36550;50.472;19.744;2022-08-01T13:26:04;3.65;;;2.83;;
50301;SDS011;36550;50.472;19.744;2022-08-01T13:28:49;6.10;;;3.00;;
50301;SDS011;36550;50.472;19.744;2022-08-01T13:31:48;5.10;;;2.80;;
50301;SDS011;36550;50.472;19.744;2022-08-01T13:34:33;4.03;;;2.75;;
50301;SDS011;36550;50.472;19.744;2022-08-01T13:37:18;4.70;;;2.80;;
50301;SDS011;36550;50.472;19.744;2022-08-01T13:40:02;6.97;;;2.50;;
50301;SDS011;36550;50.472;19.744;2022-08-01T13:42:47;6.78;;;3.08;;
50301;SDS011;36550;50.472;19.744;2022-08-01T13:45:33;5.90;;;3.10;;
50301;SDS011;36550;50.472;19.744;2022-08-01T13:48:18;3.67;;;2.80;;
50301;SDS011;36550;50.472;19.744;2022-08-01T13:51:02;5.00;;;3.17;;
50301;SDS011;36550;50.472;19.744;2022-08-01T13:53:46;4.42;;;2.75;;
50301;SDS011;36550;50.472;19.744;2022-08-01T13:56:31;5.40;;;2.90;;
50301;SDS011;36550;50.472;19.744;2022-08-01T14:02:00;4.97;;;3.05;;
50301;SDS011;36550;50.472;19.744;2022-08-01T14:04:44;5.53;;;2.87;;
50301;SDS011;36550;50.472;19.744;2022-08-01T14:07:28;8.97;;;2.90;;
50301;SDS011;36550;50.472;19.744;2022-08-01T14:10:13;5.60;;;2.62;;
50301;SDS011;36550;50.472;19.744;2022-08-01T14:12:57;6.20;;;2.40;;
50301;SDS011;36550;50.472;19.744;2022-08-01T14:15:42;4.25;;;2.40;;
50301;SDS011;36550;50.472;19.744;2022-08-01T14:18:26;7.03;;;2.73;;
50301;SDS011;36550;50.472;19.744;2022-08-01T14:21:10;4.67;;;2.65;;
50301;SDS011;36550;50.472;19.744;2022-08-01T14:23:55;3.27;;;2.50;;
50301;SDS011;36550;50.472;19.744;2022-08-01T14:26:39;4.75;;;2.55;;
50301;SDS011;36550;50.472;19.744;2022-08-01T14:29:23;4.42;;;2.45;;
50301;SDS011;36550;50.472;19.744;2022-08-01T14:32:09;8.99;;;6.14;;
50301;SDS011;36550;50.472;19.744;2022-08-01T14:34:53;6.37;;;4.35;;
50301;SDS011;36550;50.472;19.744;2022-08-01T14:37:38;6.28;;;3.12;;
50301;SDS011;36550;50.472;19.744;2022-08-01T14:40:23;5.55;;;3.70;;
50301;SDS011;36550;50.472;19.744;2022-08-01T14:43:07;6.87;;;4.12;;
50301;SDS011;36550;50.472;19.744;2022-08-01T14:45:51;11.83;;;4.40;;
50301;SDS011;36550;50.472;19.744;2022-08-01T14:48:37;5.45;;;3.70;;
50301;SDS011;36550;50.472;19.744;2022-08-01T14:51:21;6.30;;;3.67;;
50301;SDS011;36550;50.472;19.744;2022-08-01T14:54:06;7.65;;;4.75;;
50301;SDS011;36550;50.472;19.744;2022-08-01T14:56:50;5.60;;;4.72;;
50301;SDS011;36550;50.472;19.744;2022-08-01T14:59:36;8.13;;;5.40;;
50301;SDS011;36550;50.472;19.744;2022-08-01T15:02:20;10.78;;;6.12;;
50301;SDS011;36550;50.472;19.744;2022-08-01T15:05:05;10.65;;;5.62;;
50301;SDS011;36550;50.472;19.744;2022-08-01T15:07:50;7.50;;;4.67;;
50301;SDS011;36550;50.472;19.744;2022-08-01T15:10:35;5.65;;;4.03;;
50301;SDS011;36550;50.472;19.744;2022-08-01T15:13:19;8.33;;;4.75;;
50301;SDS011;36550;50.472;19.744;2022-08-01T15:16:03;14.07;;;5.67;;
50301;SDS011;36550;50.472;19.744;2022-08-01T15:18:48;10.03;;;5.00;;
50301;SDS011;36550;50.472;19.744;2022-08-01T15:21:32;8.23;;;4.65;;
50301;SDS011;36550;50.472;19.744;2022-08-01T15:24:16;7.30;;;4.83;;
50301;SDS011;36550;50.472;19.744;2022-08-01T15:27:01;13.63;;;5.07;;
50301;SDS011;36550;50.472;19.744;2022-08-01T15:29:45;11.20;;;7.87;;
50301;SDS011;36550;50.472;19.744;2022-08-01T15:32:29;10.68;;;5.00;;
50301;SDS011;36550;50.472;19.744;2022-08-01T15:35:14;7.37;;;4.58;;
50301;SDS011;36550;50.472;19.744;2022-08-01T15:37:58;9.10;;;5.62;;
50301;SDS011;36550;50.472;19.744;2022-08-01T15:40:42;16.57;;;10.58;;
50301;SDS011;36550;50.472;19.744;2022-08-01T15:43:26;12.20;;;5.53;;
50301;SDS011;36550;50.472;19.744;2022-08-01T15:46:11;7.60;;;4.80;;
50301;SDS011;36550;50.472;19.744;2022-08-01T15:48:55;10.08;;;6.40;;
50301;SDS011;36550;50.472;19.744;2022-08-01T15:51:39;8.23;;;4.58;;
50301;SDS011;36550;50.472;19.744;2022-08-01T15:54:24;6.97;;;4.08;;
50301;SDS011;36550;50.472;19.744;2022-08-01T15:57:08;6.17;;;4.22;;
50301;SDS011;36550;50.472;19.744;2022-08-01T15:59:52;9.53;;;4.70;;
50301;SDS011;36550;50.472;19.744;2022-08-01T16:02:37;7.78;;;4.00;;
50301;SDS011;36550;50.472;19.744;2022-08-01T16:05:21;8.75;;;3.40;;
50301;SDS011;36550;50.472;19.744;2022-08-01T16:10:50;7.15;;;4.05;;
50301;SDS011;36550;50.472;19.744;2022-08-01T16:13:34;9.80;;;3.73;;
50301;SDS011;36550;50.472;19.744;2022-08-01T16:16:18;7.42;;;3.90;;
50301;SDS011;36550;50.472;19.744;2022-08-01T16:21:47;13.95;;;3.65;;
50301;SDS011;36550;50.472;19.744;2022-08-01T16:24:31;8.90;;;3.43;;
50301;SDS011;36550;50.472;19.744;2022-08-01T16:27:16;12.13;;;3.52;;
50301;SDS011;36550;50.472;19.744;2022-08-01T16:32:45;6.65;;;3.62;;
50301;SDS011;36550;50.472;19.744;2022-08-01T16:35:29;9.05;;;3.55;;
50301;SDS011;36550;50.472;19.744;2022-08-01T16:38:13;11.68;;;3.60;;
50301;SDS011;36550;50.472;19.744;2022-08-01T16:40:59;35.98;;;6.95;;
50301;SDS011;36550;50.472;19.744;2022-08-01T16:43:44;11.80;;;5.67;;
50301;SDS011;36550;50.472;19.744;2022-08-01T16:46:28;10.30;;;4.37;;
50301;SDS011;36550;50.472;19.744;2022-08-01T16:49:12;6.50;;;3.33;;
50301;SDS011;36550;50.472;19.744;2022-08-01T16:51:56;11.03;;;3.97;;
50301;SDS011;36550;50.472;19.744;2022-08-01T16:54:40;8.60;;;3.55;;
50301;SDS011;36550;50.472;19.744;2022-08-01T16:57:24;10.83;;;3.43;;
50301;SDS011;36550;50.472;19.744;2022-08-01T17:00:10;5.30;;;2.90;;
50301;SDS011;36550;50.472;19.744;2022-08-01T17:02:57;11.65;;;8.80;;
50301;SDS011;36550;50.472;19.744;2022-08-01T17:05:41;5.05;;;3.27;;
50301;SDS011;36550;50.472;19.744;2022-08-01T17:08:25;4.75;;;3.47;;
50301;SDS011;36550;50.472;19.744;2022-08-01T17:11:10;14.43;;;3.20;;
50301;SDS011;36550;50.472;19.744;2022-08-01T17:13:54;8.68;;;2.90;;
50301;SDS011;36550;50.472;19.744;2022-08-01T17:16:39;6.08;;;2.87;;
50301;SDS011;36550;50.472;19.744;2022-08-01T17:19:23;4.40;;;2.67;;